createdAt,value
2023-05-19T00:00:42.507Z,82.07
2023-05-19T00:01:42.521Z,82.07
2023-05-19T00:02:42.542Z,83.92
2023-05-19T00:03:42.512Z,84.03
2023-05-19T00:04:42.482Z,83.65
2023-05-19T00:05:42.489Z,82.73
2023-05-19T00:06:42.463Z,81.60
2023-05-19T00:07:42.437Z,81.35
2023-05-19T00:08:42.427Z,82.53
2023-05-19T00:09:42.420Z,82.79
2023-05-19T00:10:42.413Z,83.76
2023-05-19T00:11:42.391Z,83.86
2023-05-19T00:12:42.385Z,84.69
2023-05-19T00:13:42.368Z,83.90
2023-05-19T00:14:42.373Z,84.17
2023-05-19T00:15:42.379Z,84.27
2023-05-19T00:16:42.423Z,84.27
2023-05-19T00:17:42.424Z,83.97
2023-05-19T00:18:42.351Z,82.67
2023-05-19T00:19:42.302Z,81.70
2023-05-19T00:20:42.305Z,83.59
2023-05-19T00:21:42.285Z,82.97
2023-05-19T00:22:42.273Z,82.77
2023-05-19T00:23:42.263Z,82.70
2023-05-19T00:24:42.268Z,82.46
2023-05-19T00:25:42.258Z,83.01
2023-05-19T00:26:42.230Z,83.12
2023-05-19T00:27:42.230Z,82.81
2023-05-19T00:28:42.208Z,82.70
2023-05-19T00:29:42.219Z,82.60
2023-05-19T00:30:42.187Z,82.40
2023-05-19T00:31:42.230Z,84.45
2023-05-19T00:32:42.236Z,84.19
2023-05-19T00:33:42.164Z,83.12
2023-05-19T00:34:42.156Z,82.60
2023-05-19T00:35:42.133Z,84.29
2023-05-19T00:36:42.132Z,83.77
2023-05-19T00:37:42.108Z,83.01
2023-05-19T00:38:42.127Z,82.84
2023-05-19T00:39:42.101Z,82.74
2023-05-19T00:40:42.080Z,82.64
2023-05-19T00:41:42.077Z,82.74
2023-05-19T00:42:42.058Z,83.05
2023-05-19T00:43:42.087Z,83.87
2023-05-19T00:44:42.034Z,83.15
2023-05-19T00:45:42.026Z,83.26
2023-05-19T00:46:42.038Z,83.05
2023-05-19T00:47:42.073Z,82.64
2023-05-19T00:48:42.014Z,82.54
2023-05-19T00:49:41.991Z,82.84
2023-05-19T00:50:41.972Z,84.91
2023-05-19T00:51:41.969Z,85.73
2023-05-19T00:52:41.966Z,85.31
2023-05-19T00:53:41.959Z,84.70
2023-05-19T00:54:41.937Z,83.56
2023-05-19T00:55:41.930Z,83.26
2023-05-19T00:56:41.909Z,83.19
2023-05-19T00:57:41.917Z,82.84
2023-05-19T00:58:41.893Z,83.09
2023-05-19T00:59:41.881Z,85.15
2023-05-19T01:00:41.897Z,84.49
2023-05-19T01:01:41.869Z,83.91
2023-05-19T01:02:41.907Z,83.81
2023-05-19T01:03:41.902Z,85.36
2023-05-19T01:04:41.868Z,85.15
2023-05-19T01:05:41.814Z,84.53
2023-05-19T01:06:41.799Z,84.22
2023-05-19T01:07:41.803Z,84.01
2023-05-19T01:08:41.779Z,83.40
2023-05-19T01:09:41.767Z,83.40
2023-05-19T01:10:41.765Z,83.91
2023-05-19T01:11:41.782Z,83.85
2023-05-19T01:12:41.743Z,84.16
2023-05-19T01:13:42.301Z,84.06
2023-05-19T01:14:41.713Z,83.81
2023-05-19T01:15:41.708Z,83.81
2023-05-19T01:16:41.734Z,84.27
2023-05-19T01:17:41.796Z,84.27
2023-05-19T01:18:41.692Z,83.75
2023-05-19T01:19:41.666Z,83.48
2023-05-19T01:20:41.651Z,83.78
2023-05-19T01:21:41.648Z,83.33
2023-05-19T01:22:41.627Z,83.48
2023-05-19T01:23:41.619Z,83.44
2023-05-19T01:24:41.605Z,84.16
2023-05-19T01:25:41.607Z,84.09
2023-05-19T01:26:41.600Z,83.78
2023-05-19T01:27:41.576Z,85.85
2023-05-19T01:28:41.561Z,86.68
2023-05-19T01:29:41.573Z,85.64
2023-05-19T01:30:41.553Z,85.75
2023-05-19T01:31:41.588Z,85.75
2023-05-19T01:32:41.555Z,85.44
2023-05-19T01:33:41.519Z,84.72
2023-05-19T01:34:41.499Z,84.09
2023-05-19T01:35:41.508Z,86.36
2023-05-19T01:36:41.484Z,85.78
2023-05-19T01:37:41.478Z,85.44
2023-05-19T01:38:41.459Z,85.33
2023-05-19T01:39:41.475Z,85.27
2023-05-19T01:40:41.451Z,85.58
2023-05-19T01:41:41.427Z,84.96
2023-05-19T01:42:41.436Z,84.13
2023-05-19T01:43:41.409Z,84.65
2023-05-19T01:44:41.408Z,84.86
2023-05-19T01:45:41.448Z,85.31
2023-05-19T01:46:41.377Z,85.00
2023-05-19T01:47:41.376Z,84.59
2023-05-19T01:48:41.355Z,85.21
2023-05-19T01:49:41.362Z,84.69
2023-05-19T01:50:41.339Z,84.48
2023-05-19T01:51:41.320Z,84.38
2023-05-19T01:52:41.312Z,85.83
2023-05-19T01:53:41.304Z,86.13
2023-05-19T01:54:41.303Z,85.10
2023-05-19T01:55:41.279Z,85.04
2023-05-19T01:56:41.271Z,84.94
2023-05-19T01:57:41.259Z,84.52
2023-05-19T01:58:41.264Z,84.21
2023-05-19T01:59:41.244Z,83.90
2023-05-19T02:00:41.226Z,84.00
2023-05-19T02:01:41.308Z,84.00
2023-05-19T02:02:41.245Z,84.52
2023-05-19T02:03:41.212Z,84.63
2023-05-19T02:04:41.259Z,84.73
2023-05-19T02:05:41.172Z,84.73
2023-05-19T02:06:41.166Z,85.35
2023-05-19T02:07:41.160Z,85.39
2023-05-19T02:08:41.152Z,85.39
2023-05-19T02:09:41.131Z,85.04
2023-05-19T02:10:41.120Z,85.08
2023-05-19T02:11:41.103Z,84.87
2023-05-19T02:12:41.111Z,84.97
2023-05-19T02:13:41.083Z,86.73
2023-05-19T02:14:41.080Z,85.70
2023-05-19T02:15:41.117Z,85.49
2023-05-19T02:16:41.052Z,85.80
2023-05-19T02:17:41.089Z,85.11
2023-05-19T02:18:41.071Z,83.98
2023-05-19T02:19:41.030Z,83.71
2023-05-19T02:20:41.013Z,83.81
2023-05-19T02:21:41.011Z,83.81
2023-05-19T02:22:41.003Z,84.53
2023-05-19T02:23:40.981Z,84.12
2023-05-19T02:24:40.969Z,83.91
2023-05-19T02:25:40.950Z,85.05
2023-05-19T02:26:40.958Z,84.74
2023-05-19T02:27:40.932Z,84.84
2023-05-19T02:28:40.925Z,85.05
2023-05-19T02:29:40.911Z,84.95
2023-05-19T02:30:40.907Z,84.74
2023-05-19T02:31:40.920Z,84.64
2023-05-19T02:32:41.012Z,85.57
2023-05-19T02:33:40.876Z,86.19
2023-05-19T02:34:40.863Z,85.88
2023-05-19T02:35:40.849Z,85.78
2023-05-19T02:36:40.853Z,86.60
2023-05-19T02:37:40.828Z,86.40
2023-05-19T02:38:40.819Z,85.57
2023-05-19T02:39:40.805Z,85.36
2023-05-19T02:40:40.809Z,85.57
2023-05-19T02:41:40.796Z,85.88
2023-05-19T02:42:40.783Z,85.99
2023-05-19T02:43:40.776Z,84.88
2023-05-19T02:44:40.763Z,86.58
2023-05-19T02:45:40.752Z,86.83
2023-05-19T02:46:40.779Z,88.07
2023-05-19T02:47:40.741Z,88.55
2023-05-19T02:48:40.715Z,89.48
2023-05-19T02:49:40.711Z,88.86
2023-05-19T02:50:40.711Z,89.17
2023-05-19T02:51:40.693Z,89.38
2023-05-19T02:52:40.678Z,90.00
2023-05-19T02:53:40.660Z,89.48
2023-05-19T02:54:40.675Z,89.69
2023-05-19T02:55:40.655Z,90.00
2023-05-19T02:56:40.633Z,89.58
2023-05-19T02:57:40.617Z,89.69
2023-05-19T02:58:40.609Z,89.58
2023-05-19T02:59:40.606Z,88.24
2023-05-19T03:00:40.587Z,88.55
2023-05-19T03:01:40.714Z,89.38
2023-05-19T03:02:40.724Z,87.72
2023-05-19T03:03:40.610Z,87.51
2023-05-19T03:04:40.557Z,87.62
2023-05-19T03:05:40.536Z,87.20
2023-05-19T03:06:40.528Z,86.89
2023-05-19T03:07:40.513Z,86.58
2023-05-19T03:08:42.318Z,86.02
2023-05-19T03:09:40.510Z,87.20
2023-05-19T03:10:40.477Z,86.99
2023-05-19T03:11:40.471Z,86.89
2023-05-19T03:12:40.461Z,87.93
2023-05-19T03:13:40.461Z,88.34
2023-05-19T03:14:40.456Z,88.34
2023-05-19T03:15:40.437Z,89.73
2023-05-19T03:16:40.562Z,90.04
2023-05-19T03:17:40.475Z,90.10
2023-05-19T03:18:40.433Z,89.07
2023-05-19T03:19:40.393Z,88.48
2023-05-19T03:20:41.649Z,89.83
2023-05-19T03:21:40.373Z,90.04
2023-05-19T03:22:40.376Z,90.14
2023-05-19T03:23:40.361Z,90.04
2023-05-19T03:24:40.338Z,89.73
2023-05-19T03:25:40.327Z,91.64
2023-05-19T03:26:40.322Z,91.49
2023-05-19T03:27:40.319Z,90.77
2023-05-19T03:28:40.296Z,89.52
2023-05-19T03:29:40.288Z,89.21
2023-05-19T03:30:40.277Z,89.42
2023-05-19T03:31:40.281Z,89.83
2023-05-19T03:32:40.331Z,88.48
2023-05-19T03:33:40.258Z,87.76
2023-05-19T03:34:40.236Z,88.39
2023-05-19T03:35:40.231Z,87.76
2023-05-19T03:36:40.225Z,87.04
2023-05-19T03:37:40.331Z,86.93
2023-05-19T03:38:40.196Z,88.39
2023-05-19T03:39:40.187Z,89.62
2023-05-19T03:40:40.173Z,89.94
2023-05-19T03:41:40.174Z,90.14
2023-05-19T03:42:40.161Z,89.11
2023-05-19T03:43:40.168Z,90.19
2023-05-19T03:44:40.136Z,89.73
2023-05-19T03:45:40.154Z,89.73
2023-05-19T03:46:40.124Z,90.14
2023-05-19T03:47:40.169Z,90.29
2023-05-19T03:48:40.098Z,90.35
2023-05-19T03:49:40.076Z,90.50
2023-05-19T03:50:40.082Z,90.29
2023-05-19T03:51:40.067Z,90.50
2023-05-19T03:52:40.047Z,90.91
2023-05-19T03:53:40.088Z,90.29
2023-05-19T03:54:40.028Z,91.02
2023-05-19T03:55:40.033Z,90.66
2023-05-19T03:56:40.027Z,90.87
2023-05-19T03:57:39.993Z,91.64
2023-05-19T03:58:39.988Z,90.77
2023-05-19T03:59:39.972Z,90.04
2023-05-19T04:00:39.971Z,90.45
2023-05-19T04:01:39.950Z,90.25
2023-05-19T04:02:40.003Z,90.45
2023-05-19T04:03:39.981Z,91.49
2023-05-19T04:04:39.976Z,91.80
2023-05-19T04:05:39.920Z,91.49
2023-05-19T04:06:39.905Z,92.53
2023-05-19T04:07:39.890Z,92.22
2023-05-19T04:08:39.878Z,92.32
2023-05-19T04:09:39.891Z,92.32
2023-05-19T04:10:39.859Z,91.76
2023-05-19T04:11:39.852Z,91.55
2023-05-19T04:12:39.857Z,91.55
2023-05-19T04:13:39.820Z,91.35
2023-05-19T04:14:39.824Z,91.45
2023-05-19T04:15:39.856Z,90.62
2023-05-19T04:16:39.799Z,90.52
2023-05-19T04:17:39.814Z,90.58
2023-05-19T04:18:39.798Z,90.72
2023-05-19T04:19:39.765Z,89.86
2023-05-19T04:20:39.768Z,89.86
2023-05-19T04:21:39.748Z,90.47
2023-05-19T04:22:39.737Z,90.68
2023-05-19T04:23:39.723Z,90.26
2023-05-19T04:24:39.711Z,90.06
2023-05-19T04:25:39.709Z,89.54
2023-05-19T04:26:39.681Z,89.96
2023-05-19T04:27:39.676Z,89.86
2023-05-19T04:28:39.677Z,89.75
2023-05-19T04:29:39.651Z,89.92
2023-05-19T04:30:39.643Z,90.12
2023-05-19T04:31:39.733Z,89.40
2023-05-19T04:32:39.779Z,89.75
2023-05-19T04:33:39.622Z,90.02
2023-05-19T04:34:39.604Z,89.92
2023-05-19T04:35:39.595Z,89.56
2023-05-19T04:36:39.579Z,89.77
2023-05-19T04:37:39.575Z,89.87
2023-05-19T04:38:39.575Z,90.19
2023-05-19T04:39:39.557Z,89.42
2023-05-19T04:40:39.544Z,89.56
2023-05-19T04:41:39.532Z,89.73
2023-05-19T04:42:39.536Z,89.42
2023-05-19T04:43:39.507Z,89.52
2023-05-19T04:44:39.501Z,89.52
2023-05-19T04:45:39.489Z,89.52
2023-05-19T04:46:39.556Z,89.94
2023-05-19T04:47:39.514Z,89.28
2023-05-19T04:48:39.472Z,89.69
2023-05-19T04:49:39.461Z,88.92
2023-05-19T04:50:39.436Z,89.86
2023-05-19T04:51:39.445Z,88.89
2023-05-19T04:52:39.425Z,89.40
2023-05-19T04:53:39.407Z,88.06
2023-05-19T04:54:39.426Z,88.95
2023-05-19T04:55:39.401Z,89.32
2023-05-19T04:56:39.386Z,89.32
2023-05-19T04:57:39.370Z,88.49
2023-05-19T04:58:41.845Z,88.24
2023-05-19T04:59:39.351Z,88.45
2023-05-19T05:00:39.337Z,89.29
2023-05-19T05:01:39.373Z,88.37
2023-05-19T05:02:39.369Z,87.24
2023-05-19T05:03:39.389Z,86.37
2023-05-19T05:04:39.291Z,86.54
2023-05-19T05:05:39.283Z,86.43
2023-05-19T05:06:39.280Z,85.68
2023-05-19T05:07:39.274Z,85.47
2023-05-19T05:08:39.252Z,84.95
2023-05-19T05:09:39.235Z,85.36
2023-05-19T05:10:39.231Z,85.98
2023-05-19T05:11:39.230Z,86.05
2023-05-19T05:12:39.206Z,85.49
2023-05-19T05:13:39.221Z,85.08
2023-05-19T05:14:39.180Z,84.98
2023-05-19T05:15:39.184Z,85.08
2023-05-19T05:16:39.180Z,85.60
2023-05-19T05:17:39.192Z,85.80
2023-05-19T05:18:39.173Z,85.08
2023-05-19T05:19:39.134Z,84.84
2023-05-19T05:20:39.125Z,84.84
2023-05-19T05:21:39.108Z,84.28
2023-05-19T05:22:39.093Z,82.64
2023-05-19T05:23:39.083Z,83.01
2023-05-19T05:24:39.084Z,81.88
2023-05-19T05:25:39.108Z,82.36
2023-05-19T05:26:39.055Z,81.85
2023-05-19T05:27:39.042Z,81.91
2023-05-19T05:28:39.024Z,81.20
2023-05-19T05:29:39.044Z,80.95
2023-05-19T05:30:39.008Z,80.74
2023-05-19T05:31:38.991Z,79.89
2023-05-19T05:32:39.047Z,80.40
2023-05-19T05:33:39.009Z,80.60
2023-05-19T05:34:38.969Z,79.54
2023-05-19T05:35:38.959Z,79.64
2023-05-19T05:36:38.935Z,79.71
2023-05-19T05:37:38.935Z,78.28
2023-05-19T05:38:38.922Z,77.56
2023-05-19T05:39:38.930Z,78.45
2023-05-19T05:40:38.894Z,77.97
2023-05-19T05:41:38.888Z,78.14
2023-05-19T05:42:38.875Z,76.67
2023-05-19T05:43:38.897Z,76.47
2023-05-19T05:44:38.873Z,76.67
2023-05-19T05:45:38.871Z,76.67
2023-05-19T05:46:38.842Z,75.10
2023-05-19T05:47:38.848Z,75.96
2023-05-19T05:48:38.823Z,75.92
2023-05-19T05:49:38.797Z,76.74
2023-05-19T05:50:38.789Z,77.35
2023-05-19T05:51:38.780Z,76.40
2023-05-19T05:52:38.763Z,74.39
2023-05-19T05:53:38.768Z,73.57
2023-05-19T05:54:38.749Z,73.16
2023-05-19T05:55:38.740Z,72.92
2023-05-19T05:56:38.729Z,74.05
2023-05-19T05:57:38.727Z,74.97
2023-05-19T05:58:38.716Z,74.97
2023-05-19T05:59:38.711Z,74.11
2023-05-19T06:00:38.691Z,74.52
2023-05-19T06:01:38.698Z,74.18
2023-05-19T06:02:38.777Z,73.64
2023-05-19T06:03:38.809Z,73.23
2023-05-19T06:04:38.649Z,73.03
2023-05-19T06:05:38.783Z,73.19
2023-05-19T06:06:38.622Z,72.38
2023-05-19T06:07:38.629Z,73.30
2023-05-19T06:08:38.602Z,72.55
2023-05-19T06:09:38.597Z,72.62
2023-05-19T06:10:38.583Z,71.02
2023-05-19T06:11:38.588Z,68.57
2023-05-19T06:12:38.562Z,69.22
2023-05-19T06:13:38.562Z,70.92
2023-05-19T06:14:38.541Z,70.41
2023-05-19T06:15:38.578Z,70.61
2023-05-19T06:16:38.572Z,70.48
2023-05-19T06:17:38.551Z,69.46
2023-05-19T06:18:38.543Z,68.85
2023-05-19T06:19:38.488Z,69.02
2023-05-19T06:20:38.489Z,69.93
2023-05-19T06:21:38.487Z,69.73
2023-05-19T06:22:38.475Z,69.60
2023-05-19T06:23:38.445Z,68.38
2023-05-19T06:24:39.547Z,69.19
2023-05-19T06:25:38.435Z,68.96
2023-05-19T06:26:38.407Z,68.75
2023-05-19T06:27:38.431Z,69.46
2023-05-19T06:28:38.391Z,68.96
2023-05-19T06:29:38.386Z,68.85
2023-05-19T06:30:38.384Z,67.33
2023-05-19T06:31:38.400Z,68.38
2023-05-19T06:32:38.379Z,68.85
2023-05-19T06:33:38.372Z,67.22
2023-05-19T06:34:38.390Z,68.24
2023-05-19T06:35:38.332Z,68.38
2023-05-19T06:36:38.306Z,68.99
2023-05-19T06:37:38.306Z,69.36
2023-05-19T06:38:38.297Z,67.13
2023-05-19T06:39:38.293Z,64.96
2023-05-19T06:40:38.272Z,65.33
2023-05-19T06:41:38.268Z,64.15
2023-05-19T06:42:38.256Z,63.81
2023-05-19T06:43:38.242Z,64.22
2023-05-19T06:44:38.244Z,63.78
2023-05-19T06:45:38.223Z,64.59
2023-05-19T06:46:38.298Z,65.71
2023-05-19T06:47:38.225Z,67.10
2023-05-19T06:48:38.202Z,65.91
2023-05-19T06:49:38.210Z,65.71
2023-05-19T06:50:38.165Z,66.08
2023-05-19T06:51:38.163Z,67.20
2023-05-19T06:52:38.141Z,64.03
2023-05-19T06:53:38.148Z,62.16
2023-05-19T06:54:38.132Z,64.18
2023-05-19T06:55:44.080Z,63.34
2023-05-19T06:56:39.115Z,63.55
2023-05-19T06:57:38.100Z,63.14
2023-05-19T06:58:38.099Z,63.32
2023-05-19T06:59:38.081Z,63.39
2023-05-19T07:00:38.073Z,62.65
2023-05-19T07:01:38.107Z,63.29
2023-05-19T07:02:38.106Z,62.98
2023-05-19T07:03:38.177Z,63.52
2023-05-19T07:04:38.027Z,63.08
2023-05-19T07:05:38.058Z,61.62
2023-05-19T07:06:38.004Z,62.84
2023-05-19T07:07:38.013Z,63.75
2023-05-19T07:08:37.984Z,64.73
2023-05-19T07:09:37.988Z,63.72
2023-05-19T07:10:37.986Z,65.42
2023-05-19T07:11:37.966Z,61.97
2023-05-19T07:12:37.954Z,60.37
2023-05-19T07:13:37.942Z,61.46
2023-05-19T07:14:37.926Z,59.12
2023-05-19T07:15:37.921Z,58.82
2023-05-19T07:16:37.955Z,57.88
2023-05-19T07:17:37.978Z,57.15
2023-05-19T07:18:37.943Z,55.83
2023-05-19T07:19:37.873Z,57.12
2023-05-19T07:20:37.865Z,56.61
2023-05-19T07:21:37.878Z,55.17
2023-05-19T07:22:37.840Z,55.17
2023-05-19T07:23:37.833Z,54.99
2023-05-19T07:24:37.830Z,55.07
2023-05-19T07:25:37.808Z,53.85
2023-05-19T07:26:37.816Z,53.96
2023-05-19T07:27:37.793Z,55.15
2023-05-19T07:28:39.797Z,55.73
2023-05-19T07:29:37.772Z,54.82
2023-05-19T07:30:37.775Z,55.02
2023-05-19T07:31:37.827Z,54.58
2023-05-19T07:32:37.773Z,53.88
2023-05-19T07:33:37.740Z,52.87
2023-05-19T07:34:37.720Z,53.27
2023-05-19T07:35:37.730Z,53.67
2023-05-19T07:36:37.718Z,53.90
2023-05-19T07:37:37.697Z,52.84
2023-05-19T07:38:37.687Z,54.86
2023-05-19T07:39:37.677Z,54.16
2023-05-19T07:40:37.691Z,53.45
2023-05-19T07:41:37.678Z,52.41
2023-05-19T07:42:37.671Z,53.02
2023-05-19T07:43:37.641Z,53.93
2023-05-19T07:44:37.640Z,55.01
2023-05-19T07:45:37.690Z,55.01
2023-05-19T07:46:37.759Z,51.07
2023-05-19T07:47:37.742Z,51.76
2023-05-19T07:48:37.587Z,51.98
2023-05-19T07:49:37.588Z,51.81
2023-05-19T07:50:37.563Z,53.38
2023-05-19T07:51:37.553Z,53.78
2023-05-19T07:52:37.547Z,54.89
2023-05-19T07:53:37.579Z,51.35
2023-05-19T07:54:37.531Z,51.86
2023-05-19T07:55:37.521Z,53.25
2023-05-19T07:56:37.506Z,53.05
2023-05-19T07:57:37.498Z,52.03
2023-05-19T07:58:37.492Z,53.09
2023-05-19T07:59:37.835Z,55.21
2023-05-19T08:00:37.462Z,53.38
2023-05-19T08:01:37.456Z,51.86
2023-05-19T08:02:37.510Z,52.16
2023-05-19T08:03:37.650Z,52.84
2023-05-19T08:04:37.483Z,53.42
2023-05-19T08:05:37.417Z,52.92
2023-05-19T08:06:37.403Z,51.99
2023-05-19T08:07:37.401Z,51.59
2023-05-19T08:08:37.399Z,51.59
2023-05-19T08:09:37.380Z,51.10
2023-05-19T08:10:37.398Z,51.91
2023-05-19T08:11:37.353Z,50.57
2023-05-19T08:12:37.357Z,50.70
2023-05-19T08:13:37.350Z,51.00
2023-05-19T08:14:37.320Z,50.70
2023-05-19T08:15:37.335Z,51.13
2023-05-19T08:16:37.303Z,51.84
2023-05-19T08:17:37.338Z,52.62
2023-05-19T08:18:37.310Z,51.91
2023-05-19T08:19:37.276Z,52.42
2023-05-19T08:20:37.270Z,51.81
2023-05-19T08:21:37.264Z,50.52
2023-05-19T08:22:37.273Z,51.00
2023-05-19T08:23:37.238Z,51.03
2023-05-19T08:24:37.221Z,51.61
2023-05-19T08:25:37.220Z,51.71
2023-05-19T08:26:38.082Z,52.80
2023-05-19T08:27:37.205Z,51.36
2023-05-19T08:28:37.182Z,49.85
2023-05-19T08:29:37.175Z,51.56
2023-05-19T08:30:37.171Z,51.76
2023-05-19T08:31:37.204Z,51.43
2023-05-19T08:32:37.179Z,49.52
2023-05-19T08:33:37.141Z,49.93
2023-05-19T08:34:37.161Z,50.96
2023-05-19T08:35:37.141Z,51.26
2023-05-19T08:36:37.116Z,51.16
2023-05-19T08:37:37.125Z,51.86
2023-05-19T08:38:37.085Z,51.76
2023-05-19T08:39:37.077Z,51.46
2023-05-19T08:40:37.068Z,50.02
2023-05-19T08:41:37.081Z,51.54
2023-05-19T08:42:37.076Z,51.16
2023-05-19T08:43:37.042Z,50.05
2023-05-19T08:44:37.035Z,52.34
2023-05-19T08:45:37.033Z,50.93
2023-05-19T08:46:37.091Z,50.93
2023-05-19T08:47:37.027Z,49.32
2023-05-19T08:48:36.986Z,50.25
2023-05-19T08:49:36.978Z,50.96
2023-05-19T08:50:36.973Z,51.18
2023-05-19T08:51:36.960Z,49.85
2023-05-19T08:52:36.956Z,51.48
2023-05-19T08:53:36.945Z,50.68
2023-05-19T08:54:36.925Z,50.60
2023-05-19T08:55:36.947Z,51.51
2023-05-19T08:56:36.906Z,51.20
2023-05-19T08:57:36.917Z,49.97
2023-05-19T08:58:36.882Z,50.57
2023-05-19T08:59:36.891Z,49.85
2023-05-19T09:00:37.322Z,52.67
2023-05-19T09:02:36.920Z,49.67
2023-05-19T09:03:36.913Z,49.65
2023-05-19T09:04:49.586Z,51.16
2023-05-19T09:05:37.861Z,50.23
2023-05-19T09:06:36.811Z,51.01
2023-05-19T09:07:36.795Z,49.70
2023-05-19T09:08:36.800Z,50.53
2023-05-19T09:09:36.802Z,50.83
2023-05-19T09:10:36.771Z,51.73
2023-05-19T09:11:36.757Z,51.21
2023-05-19T09:12:36.754Z,49.70
2023-05-19T09:13:36.756Z,48.41
2023-05-19T09:14:36.745Z,48.61
2023-05-19T09:15:36.893Z,48.94
2023-05-19T09:16:36.745Z,49.93
2023-05-19T09:17:36.780Z,49.62
2023-05-19T09:18:36.716Z,50.51
2023-05-19T09:19:36.693Z,49.48
2023-05-19T09:20:36.677Z,48.97
2023-05-19T09:21:36.673Z,49.07
2023-05-19T09:22:36.665Z,48.87
2023-05-19T09:23:36.649Z,48.95
2023-05-19T09:24:36.633Z,49.37
2023-05-19T09:25:36.617Z,49.07
2023-05-19T09:26:36.611Z,48.67
2023-05-19T09:27:36.610Z,49.19
2023-05-19T09:28:36.686Z,49.62
2023-05-19T09:29:36.588Z,49.42
2023-05-19T09:30:36.572Z,49.62
2023-05-19T09:31:36.595Z,49.62
2023-05-19T09:32:36.594Z,50.63
2023-05-19T09:33:36.547Z,52.31
2023-05-19T09:34:36.535Z,50.51
2023-05-19T09:35:36.522Z,49.48
2023-05-19T09:36:36.508Z,49.76
2023-05-19T09:37:36.509Z,49.63
2023-05-19T09:38:36.489Z,49.71
2023-05-19T09:39:36.484Z,47.50
2023-05-19T09:40:36.473Z,47.80
2023-05-19T09:41:36.463Z,47.32
2023-05-19T09:42:36.460Z,49.33
2023-05-19T09:43:36.562Z,51.04
2023-05-19T09:44:36.474Z,49.43
2023-05-19T09:45:36.546Z,49.63
2023-05-19T09:46:36.481Z,47.44
2023-05-19T09:47:36.436Z,47.34
2023-05-19T09:48:36.662Z,48.35
2023-05-19T09:49:36.382Z,48.55
2023-05-19T09:50:36.375Z,49.60
2023-05-19T09:51:36.369Z,48.78
2023-05-19T09:52:36.374Z,45.54
2023-05-19T09:53:36.341Z,45.18
2023-05-19T09:54:36.334Z,47.62
2023-05-19T09:55:36.319Z,46.64
2023-05-19T09:56:36.326Z,47.34
2023-05-19T09:57:36.301Z,47.44
2023-05-19T09:58:36.369Z,48.90
2023-05-19T09:59:36.283Z,47.35
2023-05-19T10:00:36.284Z,46.50
2023-05-19T10:01:36.319Z,45.06
2023-05-19T10:02:36.268Z,42.24
2023-05-19T10:03:36.242Z,43.26
2023-05-19T10:04:36.271Z,43.96
2023-05-19T10:05:36.340Z,43.05
2023-05-19T10:06:36.218Z,42.07
2023-05-19T10:07:36.201Z,42.97
2023-05-19T10:08:36.191Z,41.88
2023-05-19T10:09:36.197Z,44.28
2023-05-19T10:10:36.185Z,45.58
2023-05-19T10:11:36.167Z,45.50
2023-05-19T10:12:36.158Z,43.50
2023-05-19T10:13:36.136Z,45.60
2023-05-19T10:14:36.146Z,43.85
2023-05-19T10:15:40.719Z,43.54
2023-05-19T10:16:37.177Z,43.13
2023-05-19T10:17:36.118Z,41.83
2023-05-19T10:18:37.746Z,41.13
2023-05-19T10:19:36.133Z,42.74
2023-05-19T10:20:36.071Z,43.74
2023-05-19T10:21:36.068Z,44.74
2023-05-19T10:22:36.057Z,42.63
2023-05-19T10:23:36.050Z,45.06
2023-05-19T10:24:36.050Z,43.88
2023-05-19T10:25:36.025Z,45.72
2023-05-19T10:26:36.014Z,46.75
2023-05-19T10:27:36.003Z,45.95
2023-05-19T10:28:36.010Z,46.15
2023-05-19T10:29:36.000Z,46.83
2023-05-19T10:30:36.009Z,44.98
2023-05-19T10:31:36.038Z,46.84
2023-05-19T10:32:36.009Z,45.01
2023-05-19T10:33:35.970Z,42.24
2023-05-19T10:34:35.936Z,45.84
2023-05-19T10:35:36.319Z,47.54
2023-05-19T10:36:35.937Z,46.54
2023-05-19T10:37:35.907Z,48.16
2023-05-19T10:38:35.905Z,45.14
2023-05-19T10:39:35.877Z,42.66
2023-05-19T10:40:35.875Z,43.93
2023-05-19T10:41:35.863Z,45.74
2023-05-19T10:42:35.865Z,42.93
2023-05-19T10:43:35.869Z,44.16
2023-05-19T10:44:35.837Z,46.58
2023-05-19T10:45:36.114Z,46.91
2023-05-19T10:46:35.847Z,47.03
2023-05-19T10:47:35.857Z,47.11
2023-05-19T10:48:35.796Z,46.48
2023-05-19T10:49:35.821Z,46.78
2023-05-19T10:50:35.776Z,47.50
2023-05-19T10:51:35.769Z,48.03
2023-05-19T10:52:35.763Z,47.23
2023-05-19T10:53:35.761Z,47.71
2023-05-19T10:54:35.740Z,49.11
2023-05-19T10:55:35.724Z,47.46
2023-05-19T10:56:35.726Z,45.14
2023-05-19T10:57:35.720Z,46.04
2023-05-19T10:58:35.705Z,47.44
2023-05-19T10:59:35.685Z,45.86
2023-05-19T11:00:35.703Z,46.56
2023-05-19T11:01:35.773Z,46.76
2023-05-19T11:02:35.711Z,45.66
2023-05-19T11:03:35.766Z,45.54
2023-05-19T11:04:35.713Z,42.33
2023-05-19T11:07:01.740Z,44.26
2023-05-19T11:08:01.605Z,43.63
2023-05-19T11:09:01.603Z,46.44
2023-05-19T11:10:01.600Z,45.34
2023-05-19T11:11:01.612Z,46.26
2023-05-19T11:12:01.572Z,48.36
2023-05-19T11:13:01.551Z,47.28
2023-05-19T11:14:01.544Z,49.31
2023-05-19T11:15:01.556Z,48.49
2023-05-19T11:16:01.533Z,47.34
2023-05-19T11:17:01.608Z,44.24
2023-05-19T11:18:01.517Z,45.81
2023-05-19T11:19:01.517Z,44.89
2023-05-19T11:20:01.491Z,43.99
2023-05-19T11:21:01.516Z,45.67
2023-05-19T11:22:01.460Z,45.27
2023-05-19T11:23:01.514Z,44.93
2023-05-19T11:24:01.514Z,44.13
2023-05-19T11:25:01.448Z,42.38
2023-05-19T11:26:01.427Z,42.29
2023-05-19T11:27:01.409Z,42.76
2023-05-19T11:28:01.396Z,43.05
2023-05-19T11:29:01.404Z,42.05
2023-05-19T11:30:01.402Z,43.85
2023-05-19T11:31:01.361Z,44.96
2023-05-19T11:32:01.395Z,45.36
2023-05-19T11:33:01.436Z,44.43
2023-05-19T11:34:01.339Z,44.06
2023-05-19T11:35:01.339Z,45.36
2023-05-19T11:36:01.337Z,44.56
2023-05-19T11:37:01.304Z,43.96
2023-05-19T11:38:01.296Z,45.94
2023-05-19T11:39:01.288Z,43.46
2023-05-19T11:40:01.295Z,42.97
2023-05-19T11:41:01.266Z,42.68
2023-05-19T11:42:01.265Z,43.27
2023-05-19T11:43:01.239Z,43.58
2023-05-19T11:44:01.247Z,42.57
2023-05-19T11:45:01.243Z,44.76
2023-05-19T11:46:01.286Z,42.76
2023-05-19T11:47:01.199Z,42.33
2023-05-19T11:48:03.041Z,42.05
2023-05-19T11:49:01.198Z,44.26
2023-05-19T11:50:01.179Z,44.26
2023-05-19T11:51:01.168Z,41.46
2023-05-19T11:52:01.155Z,42.10
2023-05-19T11:53:01.372Z,44.02
2023-05-19T11:54:01.157Z,42.52
2023-05-19T11:55:01.125Z,46.73
2023-05-19T11:56:01.113Z,45.42
2023-05-19T11:57:01.105Z,45.40
2023-05-19T11:58:04.629Z,47.33
2023-05-19T11:59:01.088Z,45.14
2023-05-19T12:00:01.068Z,43.94
2023-05-19T12:01:01.061Z,45.34
2023-05-19T12:02:01.065Z,45.70
2023-05-19T12:03:01.093Z,43.98
2023-05-19T12:04:01.074Z,43.90
2023-05-19T12:05:01.043Z,45.68
2023-05-19T12:06:01.063Z,44.96
2023-05-19T12:07:00.994Z,46.34
2023-05-19T12:08:00.997Z,43.85
2023-05-19T12:09:00.981Z,43.26
2023-05-19T12:10:00.967Z,43.96
2023-05-19T12:11:00.960Z,44.35
2023-05-19T12:12:00.956Z,42.24
2023-05-19T12:13:00.939Z,42.71
2023-05-19T12:14:00.927Z,42.90
2023-05-19T12:15:00.919Z,43.57
2023-05-19T12:16:00.952Z,41.09
2023-05-19T12:17:00.900Z,43.63
2023-05-19T12:18:00.971Z,42.13
2023-05-19T12:19:00.905Z,43.05
2023-05-19T12:20:00.855Z,42.49
2023-05-19T12:21:00.856Z,43.19
2023-05-19T12:22:02.199Z,43.87
2023-05-19T12:23:00.982Z,44.09
2023-05-19T12:24:00.818Z,44.92
2023-05-19T12:25:00.806Z,43.62
2023-05-19T12:26:00.803Z,43.99
2023-05-19T12:27:00.805Z,42.68
2023-05-19T12:28:01.930Z,42.25
2023-05-19T12:29:01.923Z,41.53
2023-05-19T12:30:01.895Z,42.51
2023-05-19T12:31:01.868Z,39.90
2023-05-19T12:32:01.995Z,40.34
2023-05-19T12:33:01.927Z,39.52
2023-05-19T12:34:01.869Z,40.72
2023-05-19T12:35:01.853Z,39.32
2023-05-19T12:36:01.861Z,40.52
2023-05-19T12:37:01.851Z,42.43
2023-05-19T12:38:01.827Z,43.27
2023-05-19T12:39:01.859Z,43.49
2023-05-19T12:40:01.869Z,44.93
2023-05-19T12:41:01.798Z,45.74
2023-05-19T12:42:01.799Z,44.86
2023-05-19T12:43:01.787Z,45.46
2023-05-19T12:44:01.772Z,43.85
2023-05-19T12:45:03.172Z,44.18
2023-05-19T12:47:27.791Z,45.22
2023-05-19T12:48:27.800Z,44.84
2023-05-19T12:49:27.790Z,45.84
2023-05-19T12:50:27.773Z,45.84
2023-05-19T12:51:27.767Z,45.20
2023-05-19T12:52:27.792Z,45.36
2023-05-19T12:53:27.753Z,45.72
2023-05-19T12:54:27.786Z,44.39
2023-05-19T12:55:27.721Z,42.46
2023-05-19T12:56:27.732Z,41.31